Morris Fork, Kentucky
Current Conditions -  °F | °C
As of 2:53 PM on Monday 22 Dec 2014 (Local Time) from KJKL Reporting Station
Overcast Overcast  
Wind Chill: 55°   Ceiling: 10000
Heat Index: 55°   Visibility: 10mi
Dew Point: 40°   Wind: 0mph
Humidity: 57%   Direction: NA
Pressure: 29.87"   Gusts: NA
Location:  37.4818°N, 83.6652°W
Report Text: KJKL 221953Z AUTO 00000KT 10SM OVC100 13/04 A2987 RMK AO2 SLP114 T01280044
Loading
Personal Weather Stations






























Interactive Weather Map New forecast layout! Learn more

10-Day Weather Forecast

Advertisements
Track Severe Weather on mobile